sensor_id;sensor_type;location;lat;lon;timestamp;P1;durP1;ratioP1;P2;durP2;ratioP2
12556;SDS011;6344;49.932;8.308;2023-02-01T00:02:26;6.33;;;5.70;;
12556;SDS011;6344;49.932;8.308;2023-02-01T00:04:53;6.90;;;6.30;;
12556;SDS011;6344;49.932;8.308;2023-02-01T00:07:19;8.83;;;6.30;;
12556;SDS011;6344;49.932;8.308;2023-02-01T00:09:46;8.90;;;8.00;;
12556;SDS011;6344;49.932;8.308;2023-02-01T00:12:13;8.10;;;6.87;;
12556;SDS011;6344;49.932;8.308;2023-02-01T00:14:39;7.70;;;7.00;;
12556;SDS011;6344;49.932;8.308;2023-02-01T00:17:06;8.80;;;7.90;;
12556;SDS011;6344;49.932;8.308;2023-02-01T00:19:34;8.97;;;8.10;;
12556;SDS011;6344;49.932;8.308;2023-02-01T00:22:01;9.23;;;8.30;;
12556;SDS011;6344;49.932;8.308;2023-02-01T00:24:27;9.60;;;8.27;;
12556;SDS011;6344;49.932;8.308;2023-02-01T00:26:54;11.67;;;8.20;;
12556;SDS011;6344;49.932;8.308;2023-02-01T00:29:21;9.17;;;8.00;;
12556;SDS011;6344;49.932;8.308;2023-02-01T00:31:49;8.80;;;8.00;;
12556;SDS011;6344;49.932;8.308;2023-02-01T00:34:17;9.03;;;8.13;;
12556;SDS011;6344;49.932;8.308;2023-02-01T00:36:45;9.33;;;8.40;;
12556;SDS011;6344;49.932;8.308;2023-02-01T00:39:12;12.00;;;9.43;;
12556;SDS011;6344;49.932;8.308;2023-02-01T00:41:39;11.20;;;9.00;;
12556;SDS011;6344;49.932;8.308;2023-02-01T00:44:06;10.53;;;9.60;;
12556;SDS011;6344;49.932;8.308;2023-02-01T00:46:33;10.67;;;9.57;;
12556;SDS011;6344;49.932;8.308;2023-02-01T00:48:59;8.50;;;7.80;;
12556;SDS011;6344;49.932;8.308;2023-02-01T00:51:26;7.73;;;6.73;;
12556;SDS011;6344;49.932;8.308;2023-02-01T00:53:55;8.07;;;6.73;;
12556;SDS011;6344;49.932;8.308;2023-02-01T00:56:22;13.23;;;7.17;;
12556;SDS011;6344;49.932;8.308;2023-02-01T00:58:49;7.13;;;6.43;;
12556;SDS011;6344;49.932;8.308;2023-02-01T01:01:17;7.93;;;6.77;;
12556;SDS011;6344;49.932;8.308;2023-02-01T01:03:46;6.53;;;5.57;;
12556;SDS011;6344;49.932;8.308;2023-02-01T01:06:16;6.93;;;6.30;;
12556;SDS011;6344;49.932;8.308;2023-02-01T01:08:45;9.90;;;8.03;;
12556;SDS011;6344;49.932;8.308;2023-02-01T01:11:14;8.30;;;7.50;;
12556;SDS011;6344;49.932;8.308;2023-02-01T01:13:42;8.63;;;7.80;;
12556;SDS011;6344;49.932;8.308;2023-02-01T01:16:10;9.60;;;8.70;;
12556;SDS011;6344;49.932;8.308;2023-02-01T01:18:37;7.27;;;6.60;;
12556;SDS011;6344;49.932;8.308;2023-02-01T01:21:04;8.53;;;7.73;;
12556;SDS011;6344;49.932;8.308;2023-02-01T01:23:32;11.43;;;8.83;;
12556;SDS011;6344;49.932;8.308;2023-02-01T01:26:00;9.37;;;8.43;;
12556;SDS011;6344;49.932;8.308;2023-02-01T01:28:28;6.00;;;5.43;;
12556;SDS011;6344;49.932;8.308;2023-02-01T01:30:54;10.00;;;9.00;;
12556;SDS011;6344;49.932;8.308;2023-02-01T01:33:21;8.97;;;8.07;;
12556;SDS011;6344;49.932;8.308;2023-02-01T01:35:48;11.67;;;9.10;;
12556;SDS011;6344;49.932;8.308;2023-02-01T01:38:14;10.20;;;9.30;;
12556;SDS011;6344;49.932;8.308;2023-02-01T01:40:44;11.10;;;9.37;;
12556;SDS011;6344;49.932;8.308;2023-02-01T01:43:12;10.87;;;9.73;;
12556;SDS011;6344;49.932;8.308;2023-02-01T01:45:41;11.30;;;10.20;;
12556;SDS011;6344;49.932;8.308;2023-02-01T01:48:09;10.20;;;8.23;;
12556;SDS011;6344;49.932;8.308;2023-02-01T01:50:42;10.27;;;9.13;;
12556;SDS011;6344;49.932;8.308;2023-02-01T01:53:13;9.70;;;8.80;;
12556;SDS011;6344;49.932;8.308;2023-02-01T01:55:44;10.63;;;9.67;;
12556;SDS011;6344;49.932;8.308;2023-02-01T01:58:14;11.87;;;10.67;;
12556;SDS011;6344;49.932;8.308;2023-02-01T02:00:45;11.37;;;9.10;;
12556;SDS011;6344;49.932;8.308;2023-02-01T02:03:14;8.47;;;7.53;;
12556;SDS011;6344;49.932;8.308;2023-02-01T02:05:43;10.70;;;8.90;;
12556;SDS011;6344;49.932;8.308;2023-02-01T02:08:12;10.20;;;8.93;;
12556;SDS011;6344;49.932;8.308;2023-02-01T02:10:38;10.70;;;9.70;;
12556;SDS011;6344;49.932;8.308;2023-02-01T02:13:23;10.00;;;8.93;;
12556;SDS011;6344;49.932;8.308;2023-02-01T02:15:53;5.47;;;4.77;;
12556;SDS011;6344;49.932;8.308;2023-02-01T02:18:32;10.37;;;9.30;;
12556;SDS011;6344;49.932;8.308;2023-02-01T02:21:14;13.00;;;11.70;;
12556;SDS011;6344;49.932;8.308;2023-02-01T02:27:06;14.10;;;11.87;;
12556;SDS011;6344;49.932;8.308;2023-02-01T02:32:58;11.40;;;10.30;;
12556;SDS011;6344;49.932;8.308;2023-02-01T02:35:49;13.33;;;11.90;;
12556;SDS011;6344;49.932;8.308;2023-02-01T02:38:25;12.43;;;11.13;;
12556;SDS011;6344;49.932;8.308;2023-02-01T02:41:00;17.40;;;11.10;;
12556;SDS011;6344;49.932;8.308;2023-02-01T02:43:35;9.13;;;8.07;;
12556;SDS011;6344;49.932;8.308;2023-02-01T02:46:25;10.53;;;9.43;;
12556;SDS011;6344;49.932;8.308;2023-02-01T02:49:18;11.93;;;10.70;;
12556;SDS011;6344;49.932;8.308;2023-02-01T02:51:50;11.60;;;10.03;;
12556;SDS011;6344;49.932;8.308;2023-02-01T02:54:40;10.70;;;9.00;;
12556;SDS011;6344;49.932;8.308;2023-02-01T02:57:14;13.80;;;11.87;;
12556;SDS011;6344;49.932;8.308;2023-02-01T03:00:02;9.87;;;8.87;;
12556;SDS011;6344;49.932;8.308;2023-02-01T03:02:49;13.43;;;11.77;;
12556;SDS011;6344;49.932;8.308;2023-02-01T03:05:35;9.13;;;7.80;;
12556;SDS011;6344;49.932;8.308;2023-02-01T03:08:08;12.73;;;9.80;;
12556;SDS011;6344;49.932;8.308;2023-02-01T03:10:40;13.03;;;10.40;;
12556;SDS011;6344;49.932;8.308;2023-02-01T03:13:13;12.60;;;8.90;;
12556;SDS011;6344;49.932;8.308;2023-02-01T03:15:43;15.43;;;12.30;;
12556;SDS011;6344;49.932;8.308;2023-02-01T03:18:17;13.97;;;10.83;;
12556;SDS011;6344;49.932;8.308;2023-02-01T03:20:47;14.33;;;11.23;;
12556;SDS011;6344;49.932;8.308;2023-02-01T03:23:19;12.70;;;10.70;;
12556;SDS011;6344;49.932;8.308;2023-02-01T03:25:49;15.90;;;10.30;;
12556;SDS011;6344;49.932;8.308;2023-02-01T03:28:19;14.63;;;11.70;;
12556;SDS011;6344;49.932;8.308;2023-02-01T03:30:49;11.80;;;10.50;;
12556;SDS011;6344;49.932;8.308;2023-02-01T03:33:17;12.53;;;9.97;;
12556;SDS011;6344;49.932;8.308;2023-02-01T03:35:50;11.50;;;9.73;;
12556;SDS011;6344;49.932;8.308;2023-02-01T03:38:27;11.97;;;8.33;;
12556;SDS011;6344;49.932;8.308;2023-02-01T03:41:00;10.30;;;8.90;;
12556;SDS011;6344;49.932;8.308;2023-02-01T03:43:34;11.80;;;9.43;;
12556;SDS011;6344;49.932;8.308;2023-02-01T03:46:09;10.73;;;9.20;;
12556;SDS011;6344;49.932;8.308;2023-02-01T03:48:39;10.40;;;9.10;;
12556;SDS011;6344;49.932;8.308;2023-02-01T03:51:07;11.57;;;9.30;;
12556;SDS011;6344;49.932;8.308;2023-02-01T03:53:37;10.03;;;8.60;;
12556;SDS011;6344;49.932;8.308;2023-02-01T03:56:07;14.67;;;9.60;;
12556;SDS011;6344;49.932;8.308;2023-02-01T03:58:36;10.47;;;9.47;;
12556;SDS011;6344;49.932;8.308;2023-02-01T04:01:03;12.97;;;10.10;;
12556;SDS011;6344;49.932;8.308;2023-02-01T04:03:30;10.33;;;7.67;;
12556;SDS011;6344;49.932;8.308;2023-02-01T04:05:57;10.33;;;9.23;;
12556;SDS011;6344;49.932;8.308;2023-02-01T04:08:23;12.37;;;9.00;;
12556;SDS011;6344;49.932;8.308;2023-02-01T04:10:52;12.40;;;10.10;;
12556;SDS011;6344;49.932;8.308;2023-02-01T04:13:18;11.33;;;8.90;;
12556;SDS011;6344;49.932;8.308;2023-02-01T04:15:46;8.60;;;7.80;;
12556;SDS011;6344;49.932;8.308;2023-02-01T04:18:14;9.10;;;8.20;;
12556;SDS011;6344;49.932;8.308;2023-02-01T04:20:42;8.90;;;8.10;;
12556;SDS011;6344;49.932;8.308;2023-02-01T04:23:09;8.97;;;8.07;;
12556;SDS011;6344;49.932;8.308;2023-02-01T04:25:36;8.30;;;7.40;;
12556;SDS011;6344;49.932;8.308;2023-02-01T04:28:04;6.00;;;5.27;;
12556;SDS011;6344;49.932;8.308;2023-02-01T04:30:31;9.87;;;7.67;;
12556;SDS011;6344;49.932;8.308;2023-02-01T04:32:58;6.10;;;5.57;;
12556;SDS011;6344;49.932;8.308;2023-02-01T04:35:25;7.47;;;6.20;;
12556;SDS011;6344;49.932;8.308;2023-02-01T04:37:51;7.90;;;6.73;;
12556;SDS011;6344;49.932;8.308;2023-02-01T04:40:18;8.07;;;6.53;;
12556;SDS011;6344;49.932;8.308;2023-02-01T04:42:45;8.40;;;7.00;;
12556;SDS011;6344;49.932;8.308;2023-02-01T04:45:12;7.83;;;5.77;;
12556;SDS011;6344;49.932;8.308;2023-02-01T04:47:39;6.50;;;5.90;;
12556;SDS011;6344;49.932;8.308;2023-02-01T04:50:06;7.40;;;6.57;;
12556;SDS011;6344;49.932;8.308;2023-02-01T04:52:35;6.03;;;5.47;;
12556;SDS011;6344;49.932;8.308;2023-02-01T04:55:02;5.87;;;5.37;;
12556;SDS011;6344;49.932;8.308;2023-02-01T04:57:29;7.97;;;6.30;;
12556;SDS011;6344;49.932;8.308;2023-02-01T04:59:56;4.70;;;3.77;;
12556;SDS011;6344;49.932;8.308;2023-02-01T05:02:24;9.10;;;5.93;;
12556;SDS011;6344;49.932;8.308;2023-02-01T05:04:51;9.10;;;5.83;;
12556;SDS011;6344;49.932;8.308;2023-02-01T05:07:17;7.03;;;5.20;;
12556;SDS011;6344;49.932;8.308;2023-02-01T05:09:44;5.17;;;4.77;;
12556;SDS011;6344;49.932;8.308;2023-02-01T05:12:10;4.70;;;3.80;;
12556;SDS011;6344;49.932;8.308;2023-02-01T05:14:55;5.63;;;4.83;;
12556;SDS011;6344;49.932;8.308;2023-02-01T05:17:22;5.60;;;5.10;;
12556;SDS011;6344;49.932;8.308;2023-02-01T05:19:50;7.40;;;5.80;;
12556;SDS011;6344;49.932;8.308;2023-02-01T05:22:16;5.70;;;3.83;;
12556;SDS011;6344;49.932;8.308;2023-02-01T05:24:44;4.83;;;4.00;;
12556;SDS011;6344;49.932;8.308;2023-02-01T05:27:10;7.00;;;5.20;;
12556;SDS011;6344;49.932;8.308;2023-02-01T05:29:37;4.63;;;3.87;;
12556;SDS011;6344;49.932;8.308;2023-02-01T05:32:04;9.07;;;4.63;;
12556;SDS011;6344;49.932;8.308;2023-02-01T05:34:31;9.53;;;4.60;;
12556;SDS011;6344;49.932;8.308;2023-02-01T05:36:58;7.80;;;3.00;;
12556;SDS011;6344;49.932;8.308;2023-02-01T05:39:25;5.83;;;3.27;;
12556;SDS011;6344;49.932;8.308;2023-02-01T05:41:52;4.03;;;2.53;;
12556;SDS011;6344;49.932;8.308;2023-02-01T05:44:18;5.93;;;2.43;;
12556;SDS011;6344;49.932;8.308;2023-02-01T05:46:45;2.27;;;2.07;;
12556;SDS011;6344;49.932;8.308;2023-02-01T05:49:12;5.67;;;2.77;;
12556;SDS011;6344;49.932;8.308;2023-02-01T05:51:38;3.90;;;2.43;;
12556;SDS011;6344;49.932;8.308;2023-02-01T05:54:07;3.20;;;2.53;;
12556;SDS011;6344;49.932;8.308;2023-02-01T05:56:34;4.27;;;2.50;;
12556;SDS011;6344;49.932;8.308;2023-02-01T05:59:01;4.43;;;2.90;;
12556;SDS011;6344;49.932;8.308;2023-02-01T06:01:28;2.90;;;2.50;;
12556;SDS011;6344;49.932;8.308;2023-02-01T06:03:54;3.30;;;2.53;;
12556;SDS011;6344;49.932;8.308;2023-02-01T06:06:21;1.90;;;1.80;;
12556;SDS011;6344;49.932;8.308;2023-02-01T06:08:47;6.73;;;2.70;;
12556;SDS011;6344;49.932;8.308;2023-02-01T06:11:15;4.33;;;2.60;;
12556;SDS011;6344;49.932;8.308;2023-02-01T06:13:42;2.57;;;2.37;;
12556;SDS011;6344;49.932;8.308;2023-02-01T06:16:09;3.57;;;3.27;;
12556;SDS011;6344;49.932;8.308;2023-02-01T06:18:35;5.40;;;3.17;;
12556;SDS011;6344;49.932;8.308;2023-02-01T06:21:03;2.83;;;2.37;;
12556;SDS011;6344;49.932;8.308;2023-02-01T06:23:30;3.90;;;3.40;;
12556;SDS011;6344;49.932;8.308;2023-02-01T06:26:00;7.13;;;3.90;;
12556;SDS011;6344;49.932;8.308;2023-02-01T06:28:30;6.97;;;4.13;;
12556;SDS011;6344;49.932;8.308;2023-02-01T06:30:58;3.70;;;2.20;;
12556;SDS011;6344;49.932;8.308;2023-02-01T06:33:31;5.30;;;3.40;;
12556;SDS011;6344;49.932;8.308;2023-02-01T06:35:58;5.70;;;3.33;;
12556;SDS011;6344;49.932;8.308;2023-02-01T06:38:25;8.40;;;4.63;;
12556;SDS011;6344;49.932;8.308;2023-02-01T06:40:53;8.40;;;3.57;;
12556;SDS011;6344;49.932;8.308;2023-02-01T06:43:20;7.87;;;2.93;;
12556;SDS011;6344;49.932;8.308;2023-02-01T06:45:48;2.60;;;2.40;;
12556;SDS011;6344;49.932;8.308;2023-02-01T06:48:15;9.60;;;3.70;;
12556;SDS011;6344;49.932;8.308;2023-02-01T06:50:42;6.80;;;3.40;;
12556;SDS011;6344;49.932;8.308;2023-02-01T06:53:09;5.60;;;3.47;;
12556;SDS011;6344;49.932;8.308;2023-02-01T06:55:36;5.90;;;3.57;;
12556;SDS011;6344;49.932;8.308;2023-02-01T06:58:02;7.33;;;3.50;;
12556;SDS011;6344;49.932;8.308;2023-02-01T07:00:29;3.57;;;3.13;;
12556;SDS011;6344;49.932;8.308;2023-02-01T07:02:58;4.30;;;3.70;;
12556;SDS011;6344;49.932;8.308;2023-02-01T07:05:26;7.27;;;3.50;;
12556;SDS011;6344;49.932;8.308;2023-02-01T07:07:52;8.13;;;4.17;;
12556;SDS011;6344;49.932;8.308;2023-02-01T07:10:19;5.47;;;3.77;;
12556;SDS011;6344;49.932;8.308;2023-02-01T07:12:45;9.10;;;4.20;;
12556;SDS011;6344;49.932;8.308;2023-02-01T07:15:12;7.00;;;3.43;;
12556;SDS011;6344;49.932;8.308;2023-02-01T07:17:39;5.60;;;3.03;;
12556;SDS011;6344;49.932;8.308;2023-02-01T07:20:08;6.00;;;3.63;;
12556;SDS011;6344;49.932;8.308;2023-02-01T07:22:35;6.10;;;3.57;;
12556;SDS011;6344;49.932;8.308;2023-02-01T07:25:02;6.43;;;3.70;;
12556;SDS011;6344;49.932;8.308;2023-02-01T07:27:29;7.70;;;3.60;;
12556;SDS011;6344;49.932;8.308;2023-02-01T07:29:56;8.30;;;3.90;;
12556;SDS011;6344;49.932;8.308;2023-02-01T07:32:26;3.73;;;2.63;;
12556;SDS011;6344;49.932;8.308;2023-02-01T07:34:53;10.17;;;4.73;;
12556;SDS011;6344;49.932;8.308;2023-02-01T07:37:21;7.07;;;5.20;;
12556;SDS011;6344;49.932;8.308;2023-02-01T07:39:49;3.00;;;2.67;;
12556;SDS011;6344;49.932;8.308;2023-02-01T07:42:16;8.63;;;4.27;;
12556;SDS011;6344;49.932;8.308;2023-02-01T07:44:42;12.70;;;5.47;;
12556;SDS011;6344;49.932;8.308;2023-02-01T07:47:09;5.30;;;4.70;;
12556;SDS011;6344;49.932;8.308;2023-02-01T07:49:36;6.90;;;4.67;;
12556;SDS011;6344;49.932;8.308;2023-02-01T07:52:02;7.17;;;4.50;;
12556;SDS011;6344;49.932;8.308;2023-02-01T07:54:30;9.10;;;5.47;;
12556;SDS011;6344;49.932;8.308;2023-02-01T07:56:57;4.70;;;3.60;;
12556;SDS011;6344;49.932;8.308;2023-02-01T07:59:23;10.50;;;5.30;;
12556;SDS011;6344;49.932;8.308;2023-02-01T08:01:50;10.63;;;4.27;;
12556;SDS011;6344;49.932;8.308;2023-02-01T08:04:16;7.03;;;4.50;;
12556;SDS011;6344;49.932;8.308;2023-02-01T08:06:42;10.33;;;4.90;;
12556;SDS011;6344;49.932;8.308;2023-02-01T08:09:09;9.80;;;4.97;;
12556;SDS011;6344;49.932;8.308;2023-02-01T08:11:38;6.47;;;3.90;;
12556;SDS011;6344;49.932;8.308;2023-02-01T08:14:04;5.63;;;3.40;;
12556;SDS011;6344;49.932;8.308;2023-02-01T08:16:32;8.07;;;4.70;;
12556;SDS011;6344;49.932;8.308;2023-02-01T08:19:02;9.97;;;4.40;;
12556;SDS011;6344;49.932;8.308;2023-02-01T08:21:29;6.00;;;4.00;;
12556;SDS011;6344;49.932;8.308;2023-02-01T08:24:01;10.53;;;3.53;;
12556;SDS011;6344;49.932;8.308;2023-02-01T08:26:29;9.70;;;4.90;;
12556;SDS011;6344;49.932;8.308;2023-02-01T08:28:58;8.53;;;3.70;;
12556;SDS011;6344;49.932;8.308;2023-02-01T08:31:28;7.50;;;4.63;;
12556;SDS011;6344;49.932;8.308;2023-02-01T08:33:56;17.23;;;4.37;;
12556;SDS011;6344;49.932;8.308;2023-02-01T08:36:24;10.03;;;4.50;;
12556;SDS011;6344;49.932;8.308;2023-02-01T08:38:52;12.00;;;4.80;;
12556;SDS011;6344;49.932;8.308;2023-02-01T08:41:20;7.20;;;4.40;;
12556;SDS011;6344;49.932;8.308;2023-02-01T08:43:48;7.20;;;3.93;;
12556;SDS011;6344;49.932;8.308;2023-02-01T08:46:16;9.43;;;3.80;;
12556;SDS011;6344;49.932;8.308;2023-02-01T08:48:44;8.43;;;3.50;;
12556;SDS011;6344;49.932;8.308;2023-02-01T08:51:12;5.00;;;3.00;;
12556;SDS011;6344;49.932;8.308;2023-02-01T08:53:40;4.87;;;2.80;;
12556;SDS011;6344;49.932;8.308;2023-02-01T08:56:07;7.70;;;2.83;;
12556;SDS011;6344;49.932;8.308;2023-02-01T08:58:35;7.33;;;2.80;;
12556;SDS011;6344;49.932;8.308;2023-02-01T09:01:02;13.43;;;4.63;;
12556;SDS011;6344;49.932;8.308;2023-02-01T09:03:31;6.73;;;3.33;;
12556;SDS011;6344;49.932;8.308;2023-02-01T09:06:02;3.83;;;2.97;;
12556;SDS011;6344;49.932;8.308;2023-02-01T09:08:29;11.13;;;3.87;;
12556;SDS011;6344;49.932;8.308;2023-02-01T09:10:58;9.97;;;3.70;;
12556;SDS011;6344;49.932;8.308;2023-02-01T09:13:26;9.00;;;4.27;;
12556;SDS011;6344;49.932;8.308;2023-02-01T09:15:53;7.07;;;4.17;;
12556;SDS011;6344;49.932;8.308;2023-02-01T09:18:19;11.70;;;4.37;;
12556;SDS011;6344;49.932;8.308;2023-02-01T09:20:47;11.63;;;4.20;;
12556;SDS011;6344;49.932;8.308;2023-02-01T09:23:14;4.43;;;2.70;;
12556;SDS011;6344;49.932;8.308;2023-02-01T09:25:40;9.43;;;3.43;;
12556;SDS011;6344;49.932;8.308;2023-02-01T09:28:07;10.63;;;3.40;;
12556;SDS011;6344;49.932;8.308;2023-02-01T09:30:34;4.80;;;2.67;;
12556;SDS011;6344;49.932;8.308;2023-02-01T09:33:01;6.07;;;2.60;;
12556;SDS011;6344;49.932;8.308;2023-02-01T09:35:28;6.53;;;3.70;;
12556;SDS011;6344;49.932;8.308;2023-02-01T09:37:56;6.57;;;3.13;;
12556;SDS011;6344;49.932;8.308;2023-02-01T09:40:23;12.03;;;3.90;;
12556;SDS011;6344;49.932;8.308;2023-02-01T09:42:54;4.73;;;2.70;;
12556;SDS011;6344;49.932;8.308;2023-02-01T09:45:38;4.83;;;2.40;;
12556;SDS011;6344;49.932;8.308;2023-02-01T09:48:14;6.10;;;3.07;;
12556;SDS011;6344;49.932;8.308;2023-02-01T09:50:44;3.30;;;2.40;;
12556;SDS011;6344;49.932;8.308;2023-02-01T09:53:18;5.87;;;3.27;;
12556;SDS011;6344;49.932;8.308;2023-02-01T09:55:49;8.73;;;3.60;;
12556;SDS011;6344;49.932;8.308;2023-02-01T09:58:19;5.87;;;2.87;;
12556;SDS011;6344;49.932;8.308;2023-02-01T10:00:51;11.03;;;4.70;;
12556;SDS011;6344;49.932;8.308;2023-02-01T10:03:19;4.53;;;2.20;;
12556;SDS011;6344;49.932;8.308;2023-02-01T10:05:54;8.60;;;2.33;;
12556;SDS011;6344;49.932;8.308;2023-02-01T10:08:36;7.73;;;2.80;;
12556;SDS011;6344;49.932;8.308;2023-02-01T10:11:20;8.17;;;4.83;;
12556;SDS011;6344;49.932;8.308;2023-02-01T10:13:54;4.80;;;3.07;;
12556;SDS011;6344;49.932;8.308;2023-02-01T10:16:33;7.37;;;3.60;;
12556;SDS011;6344;49.932;8.308;2023-02-01T10:19:19;5.53;;;2.90;;
12556;SDS011;6344;49.932;8.308;2023-02-01T10:21:57;5.60;;;3.00;;
12556;SDS011;6344;49.932;8.308;2023-02-01T10:24:36;10.57;;;3.67;;
12556;SDS011;6344;49.932;8.308;2023-02-01T10:27:12;7.60;;;2.83;;
12556;SDS011;6344;49.932;8.308;2023-02-01T10:29:43;12.63;;;3.73;;
12556;SDS011;6344;49.932;8.308;2023-02-01T10:32:14;10.83;;;3.83;;
12556;SDS011;6344;49.932;8.308;2023-02-01T10:34:42;7.80;;;3.40;;
12556;SDS011;6344;49.932;8.308;2023-02-01T10:37:16;4.50;;;2.30;;
12556;SDS011;6344;49.932;8.308;2023-02-01T10:39:52;4.33;;;2.20;;
12556;SDS011;6344;49.932;8.308;2023-02-01T10:42:20;7.27;;;2.70;;
12556;SDS011;6344;49.932;8.308;2023-02-01T10:44:50;4.10;;;2.90;;
12556;SDS011;6344;49.932;8.308;2023-02-01T10:47:17;4.53;;;2.80;;
12556;SDS011;6344;49.932;8.308;2023-02-01T10:49:47;6.13;;;3.23;;
12556;SDS011;6344;49.932;8.308;2023-02-01T10:52:21;5.63;;;2.80;;
12556;SDS011;6344;49.932;8.308;2023-02-01T10:54:58;5.40;;;2.80;;
12556;SDS011;6344;49.932;8.308;2023-02-01T10:57:55;7.40;;;2.77;;
12556;SDS011;6344;49.932;8.308;2023-02-01T11:00:23;8.00;;;2.17;;
12556;SDS011;6344;49.932;8.308;2023-02-01T11:02:51;7.23;;;3.30;;
12556;SDS011;6344;49.932;8.308;2023-02-01T11:05:18;6.67;;;3.10;;
12556;SDS011;6344;49.932;8.308;2023-02-01T11:07:48;7.60;;;2.60;;
12556;SDS011;6344;49.932;8.308;2023-02-01T11:10:35;6.33;;;3.20;;
12556;SDS011;6344;49.932;8.308;2023-02-01T11:13:05;6.13;;;2.73;;
12556;SDS011;6344;49.932;8.308;2023-02-01T11:15:38;4.03;;;2.70;;
12556;SDS011;6344;49.932;8.308;2023-02-01T11:18:14;6.73;;;4.07;;
12556;SDS011;6344;49.932;8.308;2023-02-01T11:20:42;4.53;;;2.73;;
12556;SDS011;6344;49.932;8.308;2023-02-01T11:23:14;10.60;;;3.00;;
12556;SDS011;6344;49.932;8.308;2023-02-01T11:25:48;7.10;;;2.60;;
12556;SDS011;6344;49.932;8.308;2023-02-01T11:28:16;6.33;;;2.90;;
12556;SDS011;6344;49.932;8.308;2023-02-01T11:30:44;6.20;;;2.63;;
12556;SDS011;6344;49.932;8.308;2023-02-01T11:33:13;4.10;;;3.80;;
12556;SDS011;6344;49.932;8.308;2023-02-01T11:35:42;4.03;;;2.33;;
12556;SDS011;6344;49.932;8.308;2023-02-01T11:38:19;5.67;;;3.00;;
12556;SDS011;6344;49.932;8.308;2023-02-01T11:40:49;8.10;;;3.33;;
12556;SDS011;6344;49.932;8.308;2023-02-01T11:43:17;4.90;;;2.13;;
12556;SDS011;6344;49.932;8.308;2023-02-01T11:45:53;5.10;;;2.50;;
12556;SDS011;6344;49.932;8.308;2023-02-01T11:48:21;3.67;;;2.27;;
12556;SDS011;6344;49.932;8.308;2023-02-01T11:50:52;5.90;;;2.73;;
12556;SDS011;6344;49.932;8.308;2023-02-01T11:53:31;3.83;;;2.80;;
12556;SDS011;6344;49.932;8.308;2023-02-01T11:56:11;7.37;;;3.10;;
12556;SDS011;6344;49.932;8.308;2023-02-01T11:58:51;5.83;;;2.30;;
12556;SDS011;6344;49.932;8.308;2023-02-01T12:01:30;10.43;;;3.63;;
12556;SDS011;6344;49.932;8.308;2023-02-01T12:07:14;4.37;;;2.43;;
12556;SDS011;6344;49.932;8.308;2023-02-01T12:09:49;5.37;;;3.20;;
12556;SDS011;6344;49.932;8.308;2023-02-01T12:12:31;6.03;;;2.80;;
12556;SDS011;6344;49.932;8.308;2023-02-01T12:15:10;8.30;;;2.80;;
12556;SDS011;6344;49.932;8.308;2023-02-01T12:17:58;10.90;;;3.20;;
12556;SDS011;6344;49.932;8.308;2023-02-01T12:20:47;9.47;;;3.20;;
12556;SDS011;6344;49.932;8.308;2023-02-01T12:23:28;5.20;;;2.17;;
12556;SDS011;6344;49.932;8.308;2023-02-01T12:26:11;5.73;;;2.77;;
12556;SDS011;6344;49.932;8.308;2023-02-01T12:28:57;6.27;;;2.93;;
12556;SDS011;6344;49.932;8.308;2023-02-01T12:31:40;4.97;;;3.20;;
12556;SDS011;6344;49.932;8.308;2023-02-01T12:34:25;4.87;;;2.23;;
12556;SDS011;6344;49.932;8.308;2023-02-01T12:37:06;10.13;;;2.80;;
12556;SDS011;6344;49.932;8.308;2023-02-01T12:39:46;4.87;;;2.80;;
12556;SDS011;6344;49.932;8.308;2023-02-01T12:42:21;3.37;;;2.27;;
12556;SDS011;6344;49.932;8.308;2023-02-01T12:44:53;5.30;;;2.30;;
12556;SDS011;6344;49.932;8.308;2023-02-01T12:47:24;6.60;;;3.03;;
12556;SDS011;6344;49.932;8.308;2023-02-01T12:49:56;2.47;;;2.27;;
12556;SDS011;6344;49.932;8.308;2023-02-01T12:52:30;8.40;;;3.17;;
12556;SDS011;6344;49.932;8.308;2023-02-01T12:55:05;3.90;;;2.40;;
12556;SDS011;6344;49.932;8.308;2023-02-01T12:57:42;2.20;;;1.93;;
12556;SDS011;6344;49.932;8.308;2023-02-01T13:00:16;7.60;;;3.30;;
12556;SDS011;6344;49.932;8.308;2023-02-01T13:02:50;4.90;;;2.20;;
12556;SDS011;6344;49.932;8.308;2023-02-01T13:05:27;5.90;;;3.10;;
12556;SDS011;6344;49.932;8.308;2023-02-01T13:07:57;2.63;;;1.83;;
12556;SDS011;6344;49.932;8.308;2023-02-01T13:10:30;5.27;;;2.10;;
12556;SDS011;6344;49.932;8.308;2023-02-01T13:13:02;5.23;;;3.20;;
12556;SDS011;6344;49.932;8.308;2023-02-01T13:15:38;5.40;;;2.70;;
12556;SDS011;6344;49.932;8.308;2023-02-01T13:18:09;9.90;;;3.33;;
12556;SDS011;6344;49.932;8.308;2023-02-01T13:20:44;4.83;;;2.53;;
12556;SDS011;6344;49.932;8.308;2023-02-01T13:23:18;4.53;;;3.00;;
12556;SDS011;6344;49.932;8.308;2023-02-01T13:25:51;3.60;;;2.67;;
12556;SDS011;6344;49.932;8.308;2023-02-01T13:28:20;9.13;;;3.00;;
12556;SDS011;6344;49.932;8.308;2023-02-01T13:30:57;5.70;;;2.50;;
12556;SDS011;6344;49.932;8.308;2023-02-01T13:33:37;6.13;;;2.07;;
12556;SDS011;6344;49.932;8.308;2023-02-01T13:36:34;10.07;;;3.40;;
12556;SDS011;6344;49.932;8.308;2023-02-01T13:39:25;8.17;;;3.33;;
12556;SDS011;6344;49.932;8.308;2023-02-01T13:42:20;6.40;;;2.60;;
12556;SDS011;6344;49.932;8.308;2023-02-01T13:44:49;4.33;;;1.97;;
12556;SDS011;6344;49.932;8.308;2023-02-01T13:47:22;3.73;;;1.70;;
12556;SDS011;6344;49.932;8.308;2023-02-01T13:49:52;8.73;;;2.67;;
12556;SDS011;6344;49.932;8.308;2023-02-01T13:52:27;9.30;;;3.20;;
12556;SDS011;6344;49.932;8.308;2023-02-01T13:55:15;5.97;;;2.60;;
12556;SDS011;6344;49.932;8.308;2023-02-01T13:57:50;6.67;;;2.00;;
12556;SDS011;6344;49.932;8.308;2023-02-01T14:00:25;7.70;;;2.07;;
12556;SDS011;6344;49.932;8.308;2023-02-01T14:03:06;6.43;;;2.13;;
12556;SDS011;6344;49.932;8.308;2023-02-01T14:06:00;4.83;;;2.27;;
12556;SDS011;6344;49.932;8.308;2023-02-01T14:08:36;9.67;;;1.90;;
12556;SDS011;6344;49.932;8.308;2023-02-01T14:26:17;4.70;;;2.47;;
12556;SDS011;6344;49.932;8.308;2023-02-01T14:28:48;1.93;;;1.77;;
12556;SDS011;6344;49.932;8.308;2023-02-01T14:31:31;7.90;;;2.77;;
12556;SDS011;6344;49.932;8.308;2023-02-01T14:34:19;5.93;;;2.37;;
12556;SDS011;6344;49.932;8.308;2023-02-01T14:36:51;21.13;;;3.33;;
12556;SDS011;6344;49.932;8.308;2023-02-01T14:39:24;4.37;;;2.23;;
12556;SDS011;6344;49.932;8.308;2023-02-01T14:41:55;5.13;;;1.93;;
12556;SDS011;6344;49.932;8.308;2023-02-01T14:44:26;4.07;;;2.33;;
12556;SDS011;6344;49.932;8.308;2023-02-01T14:50:11;4.77;;;2.40;;
12556;SDS011;6344;49.932;8.308;2023-02-01T14:52:47;4.50;;;2.33;;
12556;SDS011;6344;49.932;8.308;2023-02-01T14:55:21;8.20;;;2.43;;
12556;SDS011;6344;49.932;8.308;2023-02-01T14:57:53;5.27;;;2.33;;
12556;SDS011;6344;49.932;8.308;2023-02-01T15:00:24;3.73;;;2.30;;
12556;SDS011;6344;49.932;8.308;2023-02-01T15:02:53;5.20;;;2.00;;
12556;SDS011;6344;49.932;8.308;2023-02-01T15:05:29;6.10;;;3.83;;
12556;SDS011;6344;49.932;8.308;2023-02-01T15:07:59;4.90;;;2.30;;
12556;SDS011;6344;49.932;8.308;2023-02-01T15:10:33;7.30;;;2.40;;
12556;SDS011;6344;49.932;8.308;2023-02-01T15:13:11;5.67;;;2.43;;
12556;SDS011;6344;49.932;8.308;2023-02-01T15:15:44;5.50;;;2.30;;
12556;SDS011;6344;49.932;8.308;2023-02-01T15:18:25;2.50;;;1.93;;
12556;SDS011;6344;49.932;8.308;2023-02-01T15:20:55;7.83;;;3.13;;
12556;SDS011;6344;49.932;8.308;2023-02-01T15:23:23;12.03;;;2.80;;
12556;SDS011;6344;49.932;8.308;2023-02-01T15:32:37;8.17;;;3.87;;
12556;SDS011;6344;49.932;8.308;2023-02-01T15:35:06;3.87;;;2.13;;
12556;SDS011;6344;49.932;8.308;2023-02-01T15:41:01;6.27;;;1.90;;
12556;SDS011;6344;49.932;8.308;2023-02-01T15:43:39;10.33;;;2.77;;
12556;SDS011;6344;49.932;8.308;2023-02-01T15:46:08;2.13;;;1.47;;
12556;SDS011;6344;49.932;8.308;2023-02-01T15:48:39;3.77;;;2.80;;
12556;SDS011;6344;49.932;8.308;2023-02-01T15:51:17;4.13;;;2.87;;
12556;SDS011;6344;49.932;8.308;2023-02-01T15:53:46;13.27;;;3.23;;
12556;SDS011;6344;49.932;8.308;2023-02-01T15:56:16;8.07;;;2.70;;
12556;SDS011;6344;49.932;8.308;2023-02-01T15:58:50;9.13;;;3.00;;
12556;SDS011;6344;49.932;8.308;2023-02-01T16:01:19;5.83;;;1.80;;